createdAt,value
2022-10-25T00:00:21.800Z,0.00
2022-10-25T00:01:21.928Z,0.00
2022-10-25T00:02:21.879Z,0.00
2022-10-25T00:03:21.770Z,0.00
2022-10-25T00:05:21.741Z,0.00
2022-10-25T00:06:21.723Z,0.00
2022-10-25T00:07:21.730Z,0.00
2022-10-25T00:08:21.751Z,0.00
2022-10-25T00:09:21.700Z,0.00
2022-10-25T00:10:24.881Z,0.00
2022-10-25T00:11:21.688Z,0.00
2022-10-25T00:12:21.651Z,0.00
2022-10-25T00:13:21.668Z,0.00
2022-10-25T00:14:21.631Z,0.00
2022-10-25T00:15:21.643Z,0.00
2022-10-25T00:16:21.619Z,0.00
2022-10-25T00:17:21.620Z,0.00
2022-10-25T00:18:21.590Z,0.00
2022-10-25T00:19:21.781Z,0.00
2022-10-25T00:20:21.723Z,0.00
2022-10-25T00:21:21.623Z,0.00
2022-10-25T00:22:21.554Z,0.00
2022-10-25T00:23:21.549Z,0.00
2022-10-25T00:24:21.540Z,0.00
2022-10-25T00:25:21.530Z,0.00
2022-10-25T00:26:21.511Z,0.00
2022-10-25T00:27:21.522Z,0.00
2022-10-25T00:28:21.473Z,0.00
2022-10-25T00:29:21.482Z,0.00
2022-10-25T00:30:21.451Z,0.00
2022-10-25T00:31:21.477Z,0.00
2022-10-25T00:32:21.441Z,0.00
2022-10-25T00:33:21.434Z,0.00
2022-10-25T00:34:21.410Z,0.00
2022-10-25T00:35:21.433Z,0.00
2022-10-25T00:36:21.395Z,0.00
2022-10-25T00:37:21.812Z,0.00
2022-10-25T00:38:21.373Z,0.00
2022-10-25T00:39:21.413Z,0.00
2022-10-25T00:40:21.400Z,0.00
2022-10-25T00:41:21.433Z,0.00
2022-10-25T00:42:21.335Z,0.00
2022-10-25T00:43:21.562Z,0.00
2022-10-25T00:44:21.308Z,0.00
2022-10-25T00:45:21.309Z,0.00
2022-10-25T00:46:21.289Z,0.00
2022-10-25T00:47:21.297Z,0.00
2022-10-25T00:48:21.573Z,0.00
2022-10-25T00:49:21.271Z,0.00
2022-10-25T00:50:21.240Z,0.00
2022-10-25T00:51:21.261Z,0.00
2022-10-25T00:52:21.228Z,0.00
2022-10-25T00:53:21.220Z,0.00
2022-10-25T00:55:21.201Z,0.00
2022-10-25T00:56:21.194Z,0.00
2022-10-25T00:57:21.182Z,0.00
2022-10-25T00:58:21.151Z,0.00
2022-10-25T00:59:21.794Z,0.00
2022-10-25T01:00:21.157Z,0.00
2022-10-25T01:01:21.536Z,0.00
2022-10-25T01:02:21.284Z,0.00
2022-10-25T01:03:21.120Z,0.00
2022-10-25T01:04:21.103Z,0.00
2022-10-25T01:05:21.171Z,0.00
2022-10-25T01:06:21.379Z,0.00
2022-10-25T01:07:21.078Z,0.00
2022-10-25T01:08:21.065Z,0.00
2022-10-25T01:09:21.065Z,0.00
2022-10-25T01:10:21.909Z,0.00
2022-10-25T01:11:21.217Z,0.00
2022-10-25T01:12:21.951Z,0.00
2022-10-25T01:13:21.039Z,0.00
2022-10-25T01:14:21.692Z,0.00
2022-10-25T01:15:20.970Z,0.00
2022-10-25T01:16:21.350Z,0.00
2022-10-25T01:17:20.961Z,0.00
2022-10-25T01:18:20.951Z,0.00
2022-10-25T01:19:20.986Z,0.00
2022-10-25T01:20:20.991Z,0.00
2022-10-25T01:21:21.070Z,0.00
2022-10-25T01:22:21.099Z,0.00
2022-10-25T01:23:20.891Z,0.00
2022-10-25T01:24:20.902Z,0.00
2022-10-25T01:25:20.873Z,0.00
2022-10-25T01:26:20.879Z,0.00
2022-10-25T01:27:20.850Z,0.00
2022-10-25T01:28:20.856Z,0.00
2022-10-25T01:29:20.822Z,0.00
2022-10-25T01:30:20.831Z,0.00
2022-10-25T01:31:20.822Z,0.00
2022-10-25T01:32:20.850Z,0.00
2022-10-25T01:33:20.781Z,0.00
2022-10-25T01:34:20.781Z,0.00
2022-10-25T01:35:20.770Z,0.00
2022-10-25T01:36:20.790Z,0.00
2022-10-25T01:37:20.728Z,0.00
2022-10-25T01:38:20.791Z,0.00
2022-10-25T01:39:20.709Z,0.00
2022-10-25T01:40:20.802Z,0.00
2022-10-25T01:41:20.800Z,0.00
2022-10-25T01:42:20.782Z,0.00
2022-10-25T01:43:21.031Z,0.00
2022-10-25T01:44:20.681Z,0.00
2022-10-25T01:45:20.645Z,0.00
2022-10-25T01:46:20.813Z,0.00
2022-10-25T01:47:20.621Z,0.00
2022-10-25T01:48:20.630Z,0.00
2022-10-25T01:49:20.603Z,0.00
2022-10-25T01:50:20.602Z,0.00
2022-10-25T01:51:20.590Z,0.00
2022-10-25T01:52:20.584Z,0.00
2022-10-25T01:53:20.568Z,0.00
2022-10-25T01:54:20.552Z,0.00
2022-10-25T01:55:20.531Z,0.00
2022-10-25T01:56:20.584Z,0.00
2022-10-25T01:57:20.502Z,0.00
2022-10-25T01:58:20.518Z,0.00
2022-10-25T01:59:20.480Z,0.00
2022-10-25T02:00:20.841Z,0.00
2022-10-25T02:01:21.064Z,0.00
2022-10-25T02:02:20.862Z,0.00
2022-10-25T02:03:20.663Z,0.00
2022-10-25T02:04:20.660Z,0.00
2022-10-25T02:05:20.863Z,0.00
2022-10-25T02:06:20.880Z,0.00
2022-10-25T02:07:20.880Z,0.00
2022-10-25T02:08:20.411Z,0.00
2022-10-25T02:09:20.390Z,0.00
2022-10-25T02:10:20.392Z,0.00
2022-10-25T02:11:20.360Z,0.00
2022-10-25T02:12:20.812Z,0.00
2022-10-25T02:13:20.348Z,0.00
2022-10-25T02:14:20.381Z,0.00
2022-10-25T02:15:20.311Z,0.00
2022-10-25T02:16:20.360Z,0.00
2022-10-25T02:17:20.330Z,0.00
2022-10-25T02:18:20.638Z,0.00
2022-10-25T02:19:20.262Z,0.00
2022-10-25T02:20:20.671Z,0.00
2022-10-25T02:21:20.773Z,0.00
2022-10-25T02:22:20.370Z,0.00
2022-10-25T02:23:20.403Z,0.00
2022-10-25T02:24:20.906Z,0.00
2022-10-25T02:25:20.212Z,0.00
2022-10-25T02:26:20.810Z,0.00
2022-10-25T02:27:20.816Z,0.00
2022-10-25T02:28:20.235Z,0.00
2022-10-25T02:29:20.211Z,0.00
2022-10-25T02:30:20.222Z,0.00
2022-10-25T02:31:20.185Z,0.00
2022-10-25T02:32:20.161Z,0.00
2022-10-25T02:33:20.130Z,0.00
2022-10-25T02:34:20.266Z,0.00
2022-10-25T02:35:20.092Z,0.00
2022-10-25T02:36:20.133Z,0.00
2022-10-25T02:37:20.081Z,0.00
2022-10-25T02:38:20.094Z,0.00
2022-10-25T02:39:20.051Z,0.00
2022-10-25T02:40:20.060Z,0.00
2022-10-25T02:41:20.031Z,0.00
2022-10-25T02:42:20.322Z,0.00
2022-10-25T02:43:20.427Z,0.00
2022-10-25T02:44:20.324Z,0.00
2022-10-25T02:45:20.128Z,0.00
2022-10-25T02:46:20.348Z,0.00
2022-10-25T02:47:20.774Z,0.00
2022-10-25T02:48:20.449Z,0.00
2022-10-25T02:49:19.953Z,0.00
2022-10-25T02:50:20.461Z,0.00
2022-10-25T02:51:20.054Z,0.00
2022-10-25T02:52:19.921Z,0.00
2022-10-25T02:53:19.910Z,0.00
2022-10-25T02:54:19.912Z,0.00
2022-10-25T02:55:19.879Z,0.00
2022-10-25T02:56:20.301Z,0.00
2022-10-25T02:57:19.861Z,0.00
2022-10-25T02:58:19.876Z,0.00
2022-10-25T02:59:19.842Z,0.00
2022-10-25T03:00:19.841Z,0.00
2022-10-25T03:01:19.870Z,0.00
2022-10-25T03:02:20.264Z,0.00
2022-10-25T03:03:20.141Z,0.00
2022-10-25T03:04:19.849Z,0.00
2022-10-25T03:05:19.773Z,0.00
2022-10-25T03:06:19.798Z,0.00
2022-10-25T03:07:19.762Z,0.00
2022-10-25T03:08:19.821Z,0.00
2022-10-25T03:09:19.891Z,0.00
2022-10-25T03:10:19.732Z,0.00
2022-10-25T03:11:19.704Z,0.00
2022-10-25T03:12:19.797Z,0.00
2022-10-25T03:13:19.712Z,0.00
2022-10-25T03:14:19.711Z,0.00
2022-10-25T03:15:19.675Z,0.00
2022-10-25T03:16:19.686Z,0.00
2022-10-25T03:17:19.653Z,0.00
2022-10-25T03:18:19.738Z,0.00
2022-10-25T03:19:19.704Z,0.00
2022-10-25T03:20:19.671Z,0.00
2022-10-25T03:21:19.604Z,0.00
2022-10-25T03:22:19.863Z,0.00
2022-10-25T03:23:19.661Z,0.00
2022-10-25T03:24:19.616Z,0.00
2022-10-25T03:25:19.883Z,0.00
2022-10-25T03:26:19.589Z,0.00
2022-10-25T03:27:19.535Z,0.00
2022-10-25T03:28:19.541Z,0.00
2022-10-25T03:29:19.808Z,0.00
2022-10-25T03:30:19.522Z,0.00
2022-10-25T03:31:19.502Z,0.00
2022-10-25T03:32:19.502Z,0.00
2022-10-25T03:33:19.592Z,0.00
2022-10-25T03:34:19.963Z,0.00
2022-10-25T03:35:19.461Z,0.00
2022-10-25T03:36:19.476Z,0.00
2022-10-25T03:37:19.447Z,0.00
2022-10-25T03:38:19.442Z,0.00
2022-10-25T03:39:19.474Z,0.00
2022-10-25T03:40:19.897Z,0.00
2022-10-25T03:41:19.392Z,0.00
2022-10-25T03:42:19.393Z,0.00
2022-10-25T03:43:19.441Z,0.00
2022-10-25T03:44:19.411Z,0.00
2022-10-25T03:45:19.514Z,0.00
2022-10-25T03:46:19.520Z,0.00
2022-10-25T03:47:19.350Z,0.00
2022-10-25T03:48:19.331Z,0.00
2022-10-25T03:49:19.322Z,0.00
2022-10-25T03:50:19.328Z,0.00
2022-10-25T03:51:19.280Z,0.00
2022-10-25T03:52:19.474Z,0.00
2022-10-25T03:53:19.268Z,0.00
2022-10-25T03:54:19.251Z,0.00
2022-10-25T03:55:19.234Z,0.00
2022-10-25T03:56:19.702Z,0.00
2022-10-25T03:57:19.223Z,0.00
2022-10-25T03:58:19.211Z,0.00
2022-10-25T03:59:19.200Z,0.00
2022-10-25T04:00:19.228Z,0.00
2022-10-25T04:01:19.315Z,0.00
2022-10-25T04:02:19.179Z,0.00
2022-10-25T04:03:19.143Z,0.00
2022-10-25T04:04:19.342Z,0.00
2022-10-25T04:05:19.142Z,0.00
2022-10-25T04:06:19.170Z,0.00
2022-10-25T04:07:19.455Z,0.00
2022-10-25T04:08:19.466Z,0.00
2022-10-25T04:09:19.075Z,0.00
2022-10-25T04:10:19.114Z,0.00
2022-10-25T04:11:19.052Z,0.00
2022-10-25T04:12:19.061Z,0.00
2022-10-25T04:13:19.032Z,0.00
2022-10-25T04:14:19.102Z,0.00
2022-10-25T04:15:19.024Z,0.00
2022-10-25T04:16:19.271Z,0.00
2022-10-25T04:17:19.003Z,0.00
2022-10-25T04:18:18.991Z,0.00
2022-10-25T04:19:18.990Z,0.00
2022-10-25T04:20:19.058Z,0.00
2022-10-25T04:21:18.951Z,0.00
2022-10-25T04:22:18.952Z,0.00
2022-10-25T04:23:18.932Z,0.00
2022-10-25T04:24:19.283Z,0.00
2022-10-25T04:25:19.282Z,0.00
2022-10-25T04:26:19.291Z,0.00
2022-10-25T04:27:18.894Z,0.00
2022-10-25T04:28:18.901Z,0.00
2022-10-25T04:29:18.862Z,0.00
2022-10-25T04:30:18.885Z,0.00
2022-10-25T04:31:18.840Z,0.00
2022-10-25T04:33:18.821Z,0.00
2022-10-25T04:34:18.825Z,0.00
2022-10-25T04:35:18.810Z,0.00
2022-10-25T04:36:19.361Z,0.00
2022-10-25T04:37:18.772Z,0.00
2022-10-25T04:38:18.793Z,0.00
2022-10-25T04:39:18.762Z,0.00
2022-10-25T04:40:22.572Z,0.00
2022-10-25T04:41:19.736Z,0.00
2022-10-25T04:42:18.732Z,0.00
2022-10-25T04:43:18.701Z,0.00
2022-10-25T04:44:18.734Z,0.00
2022-10-25T04:45:18.792Z,0.00
2022-10-25T04:46:18.731Z,0.00
2022-10-25T04:47:18.923Z,0.00
2022-10-25T04:48:18.694Z,0.00
2022-10-25T04:49:18.642Z,0.00
2022-10-25T04:50:18.654Z,0.00
2022-10-25T04:51:18.621Z,0.00
2022-10-25T04:52:18.627Z,0.00
2022-10-25T04:53:18.638Z,0.00
2022-10-25T04:54:18.615Z,0.00
2022-10-25T04:55:18.591Z,0.00
2022-10-25T04:56:18.597Z,0.00
2022-10-25T04:57:18.604Z,0.00
2022-10-25T04:58:18.572Z,0.00
2022-10-25T04:59:18.532Z,0.00
2022-10-25T05:00:18.560Z,0.00
2022-10-25T05:01:18.559Z,0.00
2022-10-25T05:02:18.520Z,0.00
2022-10-25T05:03:18.577Z,0.00
2022-10-25T05:04:18.958Z,0.00
2022-10-25T05:05:18.539Z,0.00
2022-10-25T05:06:18.541Z,0.00
2022-10-25T05:07:18.544Z,0.00
2022-10-25T05:08:18.652Z,0.00
2022-10-25T05:09:18.660Z,0.00
2022-10-25T05:10:18.444Z,0.00
2022-10-25T05:11:18.409Z,0.00
2022-10-25T05:12:18.407Z,0.00
2022-10-25T05:13:18.394Z,0.00
2022-10-25T05:14:18.546Z,0.00
2022-10-25T05:15:18.504Z,0.00
2022-10-25T05:16:18.385Z,0.00
2022-10-25T05:17:18.342Z,0.00
2022-10-25T05:18:18.355Z,0.00
2022-10-25T05:19:18.331Z,0.00
2022-10-25T05:20:18.352Z,0.00
2022-10-25T05:21:18.335Z,0.00
2022-10-25T05:22:18.310Z,0.00
2022-10-25T05:23:18.272Z,0.00
2022-10-25T05:24:18.285Z,0.00
2022-10-25T05:25:18.251Z,0.00
2022-10-25T05:26:18.323Z,0.00
2022-10-25T05:27:18.895Z,0.00
2022-10-25T05:28:18.799Z,0.00
2022-10-25T05:29:18.231Z,0.00
2022-10-25T05:30:18.201Z,0.00
2022-10-25T05:31:18.210Z,0.00
2022-10-25T05:32:18.202Z,0.00
2022-10-25T05:33:18.206Z,0.00
2022-10-25T05:34:18.154Z,0.00
2022-10-25T05:35:18.167Z,0.00
2022-10-25T05:36:18.180Z,0.00
2022-10-25T05:37:18.146Z,0.00
2022-10-25T05:38:18.141Z,0.00
2022-10-25T05:39:18.109Z,0.00
2022-10-25T05:40:18.099Z,0.00
2022-10-25T05:41:18.103Z,0.00
2022-10-25T05:42:18.093Z,4.00
2022-10-25T05:43:18.083Z,4.00
2022-10-25T05:44:18.049Z,4.00
2022-10-25T05:45:18.069Z,4.00
2022-10-25T05:46:18.203Z,4.00
2022-10-25T05:47:18.212Z,8.00
2022-10-25T05:48:18.023Z,8.00
2022-10-25T05:49:18.002Z,4.00
2022-10-25T05:50:17.995Z,8.00
2022-10-25T05:51:33.808Z,12.00
2022-10-25T05:52:18.971Z,12.00
2022-10-25T05:53:17.966Z,12.00
2022-10-25T05:54:17.951Z,12.00
2022-10-25T05:55:17.952Z,16.00
2022-10-25T05:56:17.912Z,20.00
2022-10-25T05:57:17.925Z,24.00
2022-10-25T05:58:17.901Z,28.00
2022-10-25T05:59:17.930Z,40.00
2022-10-25T06:00:17.884Z,44.00
2022-10-25T06:01:17.953Z,44.00
2022-10-25T06:02:18.042Z,44.00
2022-10-25T06:03:17.858Z,36.00
2022-10-25T06:04:18.133Z,36.00
2022-10-25T06:05:17.841Z,36.00
2022-10-25T06:06:17.831Z,44.00
2022-10-25T06:07:17.865Z,56.00
2022-10-25T06:08:17.792Z,56.00
2022-10-25T06:09:17.783Z,56.00
2022-10-25T06:10:17.774Z,52.00
2022-10-25T06:11:17.772Z,60.00
2022-10-25T06:12:17.755Z,64.00
2022-10-25T06:13:17.754Z,48.00
2022-10-25T06:14:17.722Z,56.00
2022-10-25T06:15:17.734Z,80.00
2022-10-25T06:16:18.212Z,92.00
2022-10-25T06:17:17.717Z,60.00
2022-10-25T06:18:18.005Z,64.00
2022-10-25T06:19:17.703Z,84.00
2022-10-25T06:20:17.672Z,112.00
2022-10-25T06:21:18.243Z,132.00
2022-10-25T06:22:17.659Z,168.00
2022-10-25T06:23:17.762Z,196.00
2022-10-25T06:24:17.751Z,244.00
2022-10-25T06:25:17.637Z,240.00
2022-10-25T06:26:17.653Z,232.00
2022-10-25T06:27:17.783Z,172.00
2022-10-25T06:28:17.772Z,160.00
2022-10-25T06:29:17.796Z,136.00
2022-10-25T06:30:17.596Z,120.00
2022-10-25T06:31:17.903Z,136.00
2022-10-25T06:32:17.920Z,152.00
2022-10-25T06:33:18.013Z,176.00
2022-10-25T06:34:18.148Z,172.00
2022-10-25T06:35:17.833Z,112.00
2022-10-25T06:36:18.143Z,140.00
2022-10-25T06:37:17.544Z,180.00
2022-10-25T06:38:17.740Z,136.00
2022-10-25T06:39:17.889Z,100.00
2022-10-25T06:40:18.212Z,100.00
2022-10-25T06:41:18.298Z,120.00
2022-10-25T06:42:17.981Z,168.00
2022-10-25T06:43:17.889Z,172.00
2022-10-25T06:44:17.406Z,316.00
2022-10-25T06:45:17.392Z,396.00
2022-10-25T06:46:17.592Z,468.00
2022-10-25T06:47:18.315Z,540.00
2022-10-25T06:48:17.622Z,564.00
2022-10-25T06:49:17.368Z,580.00
2022-10-25T06:50:17.346Z,604.00
2022-10-25T06:51:17.350Z,648.00
2022-10-25T06:52:17.304Z,644.00
2022-10-25T06:53:17.320Z,636.00
2022-10-25T06:54:17.952Z,652.00
2022-10-25T06:55:17.301Z,716.00
2022-10-25T06:56:17.265Z,752.00
2022-10-25T06:57:17.272Z,800.00
2022-10-25T06:58:17.245Z,812.00
2022-10-25T06:59:18.091Z,836.00
2022-10-25T07:00:17.291Z,856.00
2022-10-25T07:01:17.285Z,864.00
2022-10-25T07:02:17.249Z,940.00
2022-10-25T07:03:17.207Z,1076.00
2022-10-25T07:04:17.411Z,1100.00
2022-10-25T07:05:17.341Z,1072.00
2022-10-25T07:06:17.153Z,1044.00
2022-10-25T07:07:17.179Z,1084.00
2022-10-25T07:08:17.541Z,1104.00
2022-10-25T07:09:17.255Z,1136.00
2022-10-25T07:10:17.656Z,1168.00
2022-10-25T07:11:17.143Z,1152.00
2022-10-25T07:12:17.084Z,1140.00
2022-10-25T07:13:17.115Z,1112.00
2022-10-25T07:14:17.073Z,1052.00
2022-10-25T07:15:17.180Z,920.00
2022-10-25T07:16:17.146Z,920.00
2022-10-25T07:17:17.063Z,908.00
2022-10-25T07:18:17.023Z,916.00
2022-10-25T07:19:17.041Z,956.00
2022-10-25T07:20:17.000Z,1076.00
2022-10-25T07:21:18.516Z,1296.00
2022-10-25T07:22:16.983Z,1376.00
2022-10-25T07:23:17.015Z,1596.00
2022-10-25T07:24:16.961Z,1328.00
2022-10-25T07:25:16.988Z,1404.00
2022-10-25T07:26:16.949Z,1396.00
2022-10-25T07:27:16.953Z,1384.00
2022-10-25T07:28:16.977Z,1492.00
2022-10-25T07:29:16.971Z,1532.00
2022-10-25T07:30:17.383Z,1524.00
2022-10-25T07:31:16.913Z,1508.00
2022-10-25T07:32:16.882Z,1684.00
2022-10-25T07:33:16.872Z,1852.00
2022-10-25T07:34:16.929Z,1700.00
2022-10-25T07:35:16.889Z,1524.00
2022-10-25T07:36:16.861Z,1380.00
2022-10-25T07:37:16.835Z,1152.00
2022-10-25T07:38:16.802Z,976.00
2022-10-25T07:39:16.812Z,1164.00
2022-10-25T07:40:16.796Z,1472.00
2022-10-25T07:41:16.791Z,1384.00
2022-10-25T07:42:16.762Z,1244.00
2022-10-25T07:43:16.973Z,1228.00
2022-10-25T07:44:19.284Z,984.00
2022-10-25T07:45:22.212Z,744.00
2022-10-25T07:46:17.709Z,808.00
2022-10-25T07:47:16.733Z,844.00
2022-10-25T07:48:16.698Z,1072.00
2022-10-25T07:49:16.902Z,1680.00
2022-10-25T07:50:16.813Z,2044.00
2022-10-25T07:51:16.696Z,1916.00
2022-10-25T07:52:16.642Z,1996.00
2022-10-25T07:53:16.641Z,2200.00
2022-10-25T07:54:17.466Z,2184.00
2022-10-25T07:55:16.632Z,2080.00
2022-10-25T07:56:20.381Z,1996.00
2022-10-25T07:57:17.601Z,2364.00
2022-10-25T07:58:16.588Z,2668.00
2022-10-25T07:59:16.874Z,2496.00
2022-10-25T08:00:16.880Z,2344.00
2022-10-25T08:01:16.576Z,1716.00
2022-10-25T08:02:16.551Z,1364.00
2022-10-25T08:03:16.633Z,1380.00
2022-10-25T08:04:16.499Z,1900.00
2022-10-25T08:05:16.912Z,2260.00
2022-10-25T08:06:16.485Z,2184.00
2022-10-25T08:07:16.529Z,2048.00
2022-10-25T08:08:16.477Z,1908.00
2022-10-25T08:09:36.849Z,2112.00
2022-10-25T08:10:18.187Z,2416.00
2022-10-25T08:11:16.956Z,2480.00
2022-10-25T08:12:20.355Z,2600.00
2022-10-25T08:13:17.448Z,2472.00
2022-10-25T08:14:16.461Z,2608.00
2022-10-25T08:15:16.404Z,2884.00
2022-10-25T08:16:16.414Z,2544.00
2022-10-25T08:17:16.372Z,2296.00
2022-10-25T08:18:16.371Z,2316.00
2022-10-25T08:19:16.353Z,2648.00
2022-10-25T08:20:16.333Z,2904.00
2022-10-25T08:21:16.343Z,2832.00
2022-10-25T08:22:16.653Z,2456.00
2022-10-25T08:23:16.283Z,2132.00
2022-10-25T08:24:16.314Z,2112.00
2022-10-25T08:25:16.291Z,2052.00
2022-10-25T08:26:16.246Z,1824.00
2022-10-25T08:27:16.342Z,1396.00
2022-10-25T08:28:16.236Z,1136.00
2022-10-25T08:29:16.993Z,1172.00
2022-10-25T08:30:16.264Z,1292.00
2022-10-25T08:31:16.273Z,1208.00
2022-10-25T08:32:16.190Z,1184.00
2022-10-25T08:33:16.194Z,1236.00
2022-10-25T08:34:16.155Z,1392.00
2022-10-25T08:35:16.162Z,1584.00
2022-10-25T08:36:16.187Z,1664.00
2022-10-25T08:37:16.529Z,1868.00
2022-10-25T08:38:16.547Z,2100.00
2022-10-25T08:39:16.120Z,2276.00
2022-10-25T08:40:16.107Z,2504.00
2022-10-25T08:41:16.101Z,2416.00
2022-10-25T08:42:16.754Z,2784.00
2022-10-25T08:43:16.074Z,3040.00
2022-10-25T08:44:16.269Z,2968.00
2022-10-25T08:45:16.581Z,2732.00
2022-10-25T08:46:16.100Z,2288.00
2022-10-25T08:47:16.041Z,2288.00
2022-10-25T08:48:16.016Z,2800.00
2022-10-25T08:49:16.023Z,3528.00
2022-10-25T08:50:16.000Z,4036.00
2022-10-25T08:51:16.017Z,3752.00
2022-10-25T08:52:17.424Z,3752.00
2022-10-25T08:53:15.961Z,3760.00
2022-10-25T08:54:15.945Z,2928.00
2022-10-25T08:55:16.142Z,2220.00
2022-10-25T08:56:17.185Z,2000.00
2022-10-25T08:57:16.517Z,2008.00
2022-10-25T08:58:15.902Z,2120.00
2022-10-25T08:59:15.893Z,2600.00
2022-10-25T09:00:16.175Z,3020.00
2022-10-25T09:01:15.973Z,2904.00
2022-10-25T09:02:15.955Z,2704.00
2022-10-25T09:03:15.845Z,2656.00
2022-10-25T09:04:15.825Z,2804.00
2022-10-25T09:05:15.846Z,2956.00
2022-10-25T09:06:15.823Z,3076.00
2022-10-25T09:07:15.803Z,2880.00
2022-10-25T09:08:15.806Z,2524.00
2022-10-25T09:09:15.807Z,2420.00
2022-10-25T09:10:16.184Z,2892.00
2022-10-25T09:11:16.045Z,3216.00
2022-10-25T09:12:16.048Z,3204.00
2022-10-25T09:13:16.160Z,3240.00
2022-10-25T09:14:15.898Z,3308.00
2022-10-25T09:15:15.715Z,3544.00
2022-10-25T09:16:16.172Z,3860.00
2022-10-25T09:17:15.783Z,4052.00
2022-10-25T09:18:16.394Z,4088.00
2022-10-25T09:19:16.293Z,3632.00
2022-10-25T09:20:16.002Z,3300.00
2022-10-25T09:21:17.515Z,3296.00
2022-10-25T09:22:16.937Z,3348.00
2022-10-25T09:23:15.702Z,3464.00
2022-10-25T09:24:16.063Z,3640.00
2022-10-25T09:25:15.613Z,3784.00
2022-10-25T09:26:15.726Z,3684.00
2022-10-25T09:27:15.775Z,3420.00
2022-10-25T09:28:15.849Z,3276.00
2022-10-25T09:29:15.578Z,3164.00
2022-10-25T09:30:15.573Z,3316.00
2022-10-25T09:31:15.565Z,3428.00
2022-10-25T09:32:15.585Z,3352.00
2022-10-25T09:34:15.493Z,3068.00
2022-10-25T09:35:15.506Z,3212.00
2022-10-25T09:36:15.464Z,3364.00
2022-10-25T09:37:15.604Z,3224.00
2022-10-25T09:38:15.474Z,2872.00
2022-10-25T09:39:16.154Z,2876.00
2022-10-25T09:40:15.474Z,2904.00
2022-10-25T09:41:15.533Z,3132.00
2022-10-25T09:42:15.404Z,3296.00
2022-10-25T09:43:15.656Z,3140.00
2022-10-25T09:44:15.662Z,3520.00
2022-10-25T09:45:15.465Z,3640.00
2022-10-25T09:46:15.674Z,3500.00
2022-10-25T09:47:15.682Z,3728.00
2022-10-25T09:48:15.618Z,3596.00
2022-10-25T09:49:15.415Z,3344.00
2022-10-25T09:50:15.385Z,3216.00
2022-10-25T09:51:15.398Z,3260.00
2022-10-25T09:52:15.410Z,2928.00
2022-10-25T09:53:17.578Z,2732.00
2022-10-25T09:54:15.852Z,2616.00
2022-10-25T09:55:15.823Z,2252.00
2022-10-25T09:56:15.632Z,2104.00
2022-10-25T09:57:15.255Z,2268.00
2022-10-25T09:58:15.253Z,1932.00
2022-10-25T09:59:15.346Z,1876.00
2022-10-25T10:00:15.351Z,1664.00
2022-10-25T10:01:15.434Z,1396.00
2022-10-25T10:02:15.277Z,1252.00
2022-10-25T10:03:15.475Z,1308.00
2022-10-25T10:04:15.595Z,1668.00
2022-10-25T10:05:15.584Z,1944.00
2022-10-25T10:06:15.187Z,1988.00
2022-10-25T10:07:15.136Z,2252.00
2022-10-25T10:08:15.142Z,2460.00
2022-10-25T10:09:15.139Z,2568.00
2022-10-25T10:10:15.199Z,2632.00
2022-10-25T10:11:15.221Z,2552.00
2022-10-25T10:12:15.339Z,2920.00
2022-10-25T10:13:15.172Z,2744.00
2022-10-25T10:14:15.147Z,2428.00
2022-10-25T10:15:15.154Z,2132.00
2022-10-25T10:16:15.065Z,1900.00
2022-10-25T10:17:15.014Z,1720.00
2022-10-25T10:18:15.026Z,1764.00
2022-10-25T10:19:15.009Z,1660.00
2022-10-25T10:20:15.098Z,1344.00
2022-10-25T10:21:14.977Z,1060.00
2022-10-25T10:22:15.001Z,872.00
2022-10-25T10:23:14.956Z,1056.00
2022-10-25T10:24:14.964Z,1076.00
2022-10-25T10:25:15.251Z,828.00
2022-10-25T10:26:14.928Z,672.00
2022-10-25T10:27:14.904Z,656.00
2022-10-25T10:28:14.937Z,764.00
2022-10-25T10:29:16.651Z,864.00
2022-10-25T10:30:14.884Z,948.00
2022-10-25T10:31:14.863Z,952.00
2022-10-25T10:32:14.978Z,848.00
2022-10-25T10:33:14.968Z,852.00
2022-10-25T10:34:14.998Z,808.00
2022-10-25T10:35:14.837Z,1000.00
2022-10-25T10:36:14.817Z,1320.00
2022-10-25T10:37:14.798Z,1640.00
2022-10-25T10:38:14.819Z,2076.00
2022-10-25T10:39:14.776Z,1780.00
2022-10-25T10:40:14.776Z,1472.00
2022-10-25T10:41:14.770Z,1276.00
2022-10-25T10:42:15.232Z,1376.00
2022-10-25T10:43:14.727Z,1588.00
2022-10-25T10:44:14.791Z,1332.00
2022-10-25T10:45:14.943Z,1044.00
2022-10-25T10:46:14.994Z,908.00
2022-10-25T10:47:14.693Z,956.00
2022-10-25T10:48:14.696Z,912.00
2022-10-25T10:49:14.798Z,872.00
2022-10-25T10:50:14.677Z,880.00
2022-10-25T10:51:38.887Z,1172.00
2022-10-25T10:52:15.981Z,1896.00
2022-10-25T10:53:14.917Z,2108.00
2022-10-25T10:54:14.647Z,2260.00
2022-10-25T10:55:14.630Z,2564.00
2022-10-25T10:56:14.595Z,2972.00
2022-10-25T10:57:14.576Z,2964.00
2022-10-25T10:58:14.589Z,3008.00
2022-10-25T10:59:14.635Z,2840.00
2022-10-25T11:00:14.654Z,2904.00
2022-10-25T11:01:14.687Z,3296.00
2022-10-25T11:02:14.744Z,3372.00
2022-10-25T11:03:14.526Z,3092.00
2022-10-25T11:04:14.508Z,2768.00
2022-10-25T11:05:14.498Z,2684.00
2022-10-25T11:06:14.536Z,2524.00
2022-10-25T11:07:14.515Z,2624.00
2022-10-25T11:08:14.489Z,3064.00
2022-10-25T11:09:14.697Z,3032.00
2022-10-25T11:10:14.445Z,2916.00
2022-10-25T11:11:14.426Z,3080.00
2022-10-25T11:12:14.483Z,3136.00
2022-10-25T11:13:14.440Z,3060.00
2022-10-25T11:14:14.837Z,2880.00
2022-10-25T11:15:14.870Z,2536.00
2022-10-25T11:16:14.407Z,2300.00
2022-10-25T11:17:14.388Z,2292.00
2022-10-25T11:18:14.357Z,2340.00
2022-10-25T11:19:14.345Z,3092.00
2022-10-25T11:20:14.345Z,3564.00
2022-10-25T11:21:14.327Z,3636.00
2022-10-25T11:22:14.317Z,3748.00
2022-10-25T11:23:14.325Z,4076.00
2022-10-25T11:24:14.371Z,4244.00
2022-10-25T11:25:14.280Z,4416.00
2022-10-25T11:26:14.289Z,4572.00
2022-10-25T11:27:14.249Z,4532.00
2022-10-25T11:28:14.259Z,4488.00
2022-10-25T11:29:14.249Z,4260.00
2022-10-25T11:30:14.247Z,4752.00
2022-10-25T11:31:14.207Z,4528.00
2022-10-25T11:32:14.219Z,4092.00
2022-10-25T11:33:14.484Z,4484.00
2022-10-25T11:34:14.275Z,4652.00
2022-10-25T11:35:14.277Z,4376.00
2022-10-25T11:36:14.187Z,4104.00
2022-10-25T11:37:14.137Z,3708.00
2022-10-25T11:38:14.710Z,3356.00
2022-10-25T11:39:14.220Z,3444.00
2022-10-25T11:40:14.127Z,3432.00
2022-10-25T11:41:14.092Z,3436.00
2022-10-25T11:42:14.145Z,3488.00
2022-10-25T11:43:14.101Z,3768.00
2022-10-25T11:44:14.068Z,3932.00
2022-10-25T11:45:14.060Z,3796.00
2022-10-25T11:46:14.059Z,3556.00
2022-10-25T11:47:14.062Z,3164.00
2022-10-25T11:48:14.019Z,2912.00
2022-10-25T11:49:13.993Z,2828.00
2022-10-25T11:50:13.998Z,2688.00
2022-10-25T11:51:14.003Z,2588.00
2022-10-25T11:53:13.938Z,2700.00
2022-10-25T11:54:13.948Z,3432.00
2022-10-25T11:55:13.963Z,3572.00
2022-10-25T11:56:13.927Z,3180.00
2022-10-25T11:57:13.916Z,3624.00
2022-10-25T11:58:13.920Z,3468.00
2022-10-25T11:59:13.936Z,3548.00
2022-10-25T12:00:13.978Z,3452.00
2022-10-25T12:01:14.033Z,3216.00
2022-10-25T12:02:13.874Z,3216.00
2022-10-25T12:03:13.913Z,2852.00
2022-10-25T12:04:13.857Z,2584.00
2022-10-25T12:05:13.820Z,2684.00
2022-10-25T12:06:13.828Z,2680.00
2022-10-25T12:07:13.798Z,2100.00
2022-10-25T12:08:13.818Z,1828.00
2022-10-25T12:09:13.815Z,1816.00
2022-10-25T12:10:13.795Z,1928.00
2022-10-25T12:11:16.401Z,2100.00
2022-10-25T12:12:14.772Z,2236.00
2022-10-25T12:13:13.749Z,2232.00
2022-10-25T12:14:13.827Z,2368.00
2022-10-25T12:15:13.958Z,2532.00
2022-10-25T12:16:13.779Z,2452.00
2022-10-25T12:17:13.839Z,1836.00
2022-10-25T12:18:13.712Z,1576.00
2022-10-25T12:19:13.669Z,1556.00
2022-10-25T12:20:13.668Z,1760.00
2022-10-25T12:21:13.649Z,2008.00
2022-10-25T12:22:13.660Z,2148.00
2022-10-25T12:23:13.651Z,2200.00
2022-10-25T12:24:13.633Z,2312.00
2022-10-25T12:25:13.598Z,2616.00
2022-10-25T12:26:13.600Z,3036.00
2022-10-25T12:27:13.610Z,3240.00
2022-10-25T12:28:13.589Z,3604.00
2022-10-25T12:29:13.597Z,4004.00
2022-10-25T12:30:13.601Z,4064.00
2022-10-25T12:31:13.539Z,4132.00
2022-10-25T12:32:13.540Z,4168.00
2022-10-25T12:33:13.547Z,4148.00
2022-10-25T12:34:13.517Z,4248.00
2022-10-25T12:35:13.512Z,4316.00
2022-10-25T12:36:13.617Z,4200.00
2022-10-25T12:37:13.480Z,4244.00
2022-10-25T12:38:13.488Z,3988.00
2022-10-25T12:39:13.440Z,3692.00
2022-10-25T12:40:13.558Z,3772.00
2022-10-25T12:41:13.436Z,3792.00
2022-10-25T12:42:13.433Z,3392.00
2022-10-25T12:43:13.399Z,3316.00
2022-10-25T12:44:13.407Z,3564.00
2022-10-25T12:45:13.415Z,3776.00
2022-10-25T12:46:13.399Z,3992.00